sensor_id;sensor_type;location;lat;lon;timestamp;P1;durP1;ratioP1;P2;durP2;ratioP2
50569;SDS011;36525;49.398;7.614;2023-04-30T00:00:33;21.98;;;17.48;;
50569;SDS011;36525;49.398;7.614;2023-04-30T00:03:01;20.25;;;15.70;;
50569;SDS011;36525;49.398;7.614;2023-04-30T00:05:30;21.70;;;18.30;;
50569;SDS011;36525;49.398;7.614;2023-04-30T00:07:57;23.27;;;17.40;;
50569;SDS011;36525;49.398;7.614;2023-04-30T00:10:24;21.70;;;16.45;;
50569;SDS011;36525;49.398;7.614;2023-04-30T00:12:51;21.48;;;17.48;;
50569;SDS011;36525;49.398;7.614;2023-04-30T00:15:18;20.98;;;15.80;;
50569;SDS011;36525;49.398;7.614;2023-04-30T00:17:46;23.05;;;17.60;;
50569;SDS011;36525;49.398;7.614;2023-04-30T00:20:14;26.30;;;18.52;;
50569;SDS011;36525;49.398;7.614;2023-04-30T00:22:41;21.67;;;16.52;;
50569;SDS011;36525;49.398;7.614;2023-04-30T00:25:09;22.00;;;16.10;;
50569;SDS011;36525;49.398;7.614;2023-04-30T00:27:36;19.75;;;16.48;;
50569;SDS011;36525;49.398;7.614;2023-04-30T00:30:06;20.15;;;14.68;;
50569;SDS011;36525;49.398;7.614;2023-04-30T00:32:33;20.25;;;16.38;;
50569;SDS011;36525;49.398;7.614;2023-04-30T00:35:01;19.08;;;15.35;;
50569;SDS011;36525;49.398;7.614;2023-04-30T00:37:29;20.20;;;15.95;;
50569;SDS011;36525;49.398;7.614;2023-04-30T00:39:57;19.23;;;15.80;;
50569;SDS011;36525;49.398;7.614;2023-04-30T00:42:25;21.90;;;15.57;;
50569;SDS011;36525;49.398;7.614;2023-04-30T00:44:51;19.08;;;15.90;;
50569;SDS011;36525;49.398;7.614;2023-04-30T00:47:18;19.83;;;16.70;;
50569;SDS011;36525;49.398;7.614;2023-04-30T00:49:46;19.58;;;15.85;;
50569;SDS011;36525;49.398;7.614;2023-04-30T00:52:13;21.73;;;15.50;;
50569;SDS011;36525;49.398;7.614;2023-04-30T00:54:40;21.60;;;15.80;;
50569;SDS011;36525;49.398;7.614;2023-04-30T00:57:08;21.73;;;16.30;;
50569;SDS011;36525;49.398;7.614;2023-04-30T00:59:39;19.08;;;16.73;;
50569;SDS011;36525;49.398;7.614;2023-04-30T01:02:08;19.67;;;16.05;;
50569;SDS011;36525;49.398;7.614;2023-04-30T01:04:35;17.30;;;15.00;;
50569;SDS011;36525;49.398;7.614;2023-04-30T01:07:02;19.80;;;15.80;;
50569;SDS011;36525;49.398;7.614;2023-04-30T01:09:30;20.73;;;15.82;;
50569;SDS011;36525;49.398;7.614;2023-04-30T01:12:09;17.52;;;14.52;;
50569;SDS011;36525;49.398;7.614;2023-04-30T01:20:35;16.15;;;13.57;;
50569;SDS011;36525;49.398;7.614;2023-04-30T01:28:37;18.02;;;14.60;;
50569;SDS011;36525;49.398;7.614;2023-04-30T01:31:18;19.13;;;15.13;;
50569;SDS011;36525;49.398;7.614;2023-04-30T01:33:46;19.50;;;13.43;;
50569;SDS011;36525;49.398;7.614;2023-04-30T01:39:25;17.52;;;14.43;;
50569;SDS011;36525;49.398;7.614;2023-04-30T01:42:22;16.05;;;13.38;;
50569;SDS011;36525;49.398;7.614;2023-04-30T01:51:12;18.00;;;13.85;;
50569;SDS011;36525;49.398;7.614;2023-04-30T01:53:47;15.48;;;13.77;;
50569;SDS011;36525;49.398;7.614;2023-04-30T01:56:23;14.57;;;12.40;;
50569;SDS011;36525;49.398;7.614;2023-04-30T01:58:58;17.00;;;13.35;;
50569;SDS011;36525;49.398;7.614;2023-04-30T02:01:27;18.88;;;15.40;;
50569;SDS011;36525;49.398;7.614;2023-04-30T02:03:56;17.50;;;13.93;;
50569;SDS011;36525;49.398;7.614;2023-04-30T02:06:24;14.40;;;12.88;;
50569;SDS011;36525;49.398;7.614;2023-04-30T02:08:56;15.82;;;13.65;;
50569;SDS011;36525;49.398;7.614;2023-04-30T02:11:28;20.05;;;16.38;;
50569;SDS011;36525;49.398;7.614;2023-04-30T02:13:56;19.30;;;14.57;;
50569;SDS011;36525;49.398;7.614;2023-04-30T02:16:41;17.75;;;14.93;;
50569;SDS011;36525;49.398;7.614;2023-04-30T02:19:08;21.30;;;15.77;;
50569;SDS011;36525;49.398;7.614;2023-04-30T02:21:36;17.38;;;13.82;;
50569;SDS011;36525;49.398;7.614;2023-04-30T02:24:03;18.55;;;15.52;;
50569;SDS011;36525;49.398;7.614;2023-04-30T02:26:31;19.05;;;15.43;;
50569;SDS011;36525;49.398;7.614;2023-04-30T02:28:58;18.55;;;15.27;;
50569;SDS011;36525;49.398;7.614;2023-04-30T02:31:25;18.20;;;16.30;;
50569;SDS011;36525;49.398;7.614;2023-04-30T02:33:52;18.52;;;15.88;;
50569;SDS011;36525;49.398;7.614;2023-04-30T02:36:19;18.08;;;16.00;;
50569;SDS011;36525;49.398;7.614;2023-04-30T02:38:46;18.05;;;16.15;;
50569;SDS011;36525;49.398;7.614;2023-04-30T02:41:14;20.77;;;16.48;;
50569;SDS011;36525;49.398;7.614;2023-04-30T02:43:41;17.70;;;14.65;;
50569;SDS011;36525;49.398;7.614;2023-04-30T02:46:09;20.05;;;14.77;;
50569;SDS011;36525;49.398;7.614;2023-04-30T02:48:36;18.67;;;16.20;;
50569;SDS011;36525;49.398;7.614;2023-04-30T02:51:04;17.63;;;15.60;;
50569;SDS011;36525;49.398;7.614;2023-04-30T02:53:31;17.88;;;15.35;;
50569;SDS011;36525;49.398;7.614;2023-04-30T02:55:59;20.27;;;15.55;;
50569;SDS011;36525;49.398;7.614;2023-04-30T02:58:26;18.63;;;15.73;;
50569;SDS011;36525;49.398;7.614;2023-04-30T03:00:53;18.33;;;15.95;;
50569;SDS011;36525;49.398;7.614;2023-04-30T03:03:21;20.67;;;16.95;;
50569;SDS011;36525;49.398;7.614;2023-04-30T03:05:49;18.50;;;16.08;;
50569;SDS011;36525;49.398;7.614;2023-04-30T03:08:17;17.45;;;15.48;;
50569;SDS011;36525;49.398;7.614;2023-04-30T03:10:43;19.60;;;15.95;;
50569;SDS011;36525;49.398;7.614;2023-04-30T03:13:11;21.92;;;17.92;;
50569;SDS011;36525;49.398;7.614;2023-04-30T03:15:38;20.25;;;16.92;;
50569;SDS011;36525;49.398;7.614;2023-04-30T03:18:05;24.90;;;19.27;;
50569;SDS011;36525;49.398;7.614;2023-04-30T03:20:32;19.48;;;17.38;;
50569;SDS011;36525;49.398;7.614;2023-04-30T03:22:59;25.98;;;19.02;;
50569;SDS011;36525;49.398;7.614;2023-04-30T03:25:26;23.65;;;20.52;;
50569;SDS011;36525;49.398;7.614;2023-04-30T03:27:53;24.95;;;20.48;;
50569;SDS011;36525;49.398;7.614;2023-04-30T03:30:21;25.23;;;21.15;;
50569;SDS011;36525;49.398;7.614;2023-04-30T03:32:50;24.70;;;20.60;;
50569;SDS011;36525;49.398;7.614;2023-04-30T03:35:16;26.98;;;22.08;;
50569;SDS011;36525;49.398;7.614;2023-04-30T03:37:44;25.70;;;22.00;;
50569;SDS011;36525;49.398;7.614;2023-04-30T03:40:12;25.80;;;22.25;;
50569;SDS011;36525;49.398;7.614;2023-04-30T03:42:39;27.85;;;22.83;;
50569;SDS011;36525;49.398;7.614;2023-04-30T03:45:06;23.65;;;21.10;;
50569;SDS011;36525;49.398;7.614;2023-04-30T03:47:34;25.25;;;21.35;;
50569;SDS011;36525;49.398;7.614;2023-04-30T03:50:02;27.17;;;22.20;;
50569;SDS011;36525;49.398;7.614;2023-04-30T03:52:30;30.85;;;22.48;;
50569;SDS011;36525;49.398;7.614;2023-04-30T03:55:00;29.38;;;22.98;;
50569;SDS011;36525;49.398;7.614;2023-04-30T03:57:27;25.63;;;22.58;;
50569;SDS011;36525;49.398;7.614;2023-04-30T03:59:54;26.83;;;23.02;;
50569;SDS011;36525;49.398;7.614;2023-04-30T04:02:22;28.15;;;23.50;;
50569;SDS011;36525;49.398;7.614;2023-04-30T04:04:50;27.42;;;23.20;;
50569;SDS011;36525;49.398;7.614;2023-04-30T04:07:17;27.13;;;22.77;;
50569;SDS011;36525;49.398;7.614;2023-04-30T04:09:45;25.30;;;22.58;;
50569;SDS011;36525;49.398;7.614;2023-04-30T04:12:12;26.98;;;23.92;;
50569;SDS011;36525;49.398;7.614;2023-04-30T04:14:39;28.27;;;24.10;;
50569;SDS011;36525;49.398;7.614;2023-04-30T04:17:06;27.98;;;23.27;;
50569;SDS011;36525;49.398;7.614;2023-04-30T04:19:34;28.40;;;24.58;;
50569;SDS011;36525;49.398;7.614;2023-04-30T04:22:01;27.63;;;23.52;;
50569;SDS011;36525;49.398;7.614;2023-04-30T04:24:28;24.30;;;21.55;;
50569;SDS011;36525;49.398;7.614;2023-04-30T04:26:55;25.23;;;21.80;;
50569;SDS011;36525;49.398;7.614;2023-04-30T04:29:23;26.27;;;22.65;;
50569;SDS011;36525;49.398;7.614;2023-04-30T04:31:52;27.77;;;23.05;;
50569;SDS011;36525;49.398;7.614;2023-04-30T04:34:21;25.00;;;21.65;;
50569;SDS011;36525;49.398;7.614;2023-04-30T04:36:49;25.92;;;23.17;;
50569;SDS011;36525;49.398;7.614;2023-04-30T04:39:16;25.38;;;22.30;;
50569;SDS011;36525;49.398;7.614;2023-04-30T04:41:45;27.35;;;23.83;;
50569;SDS011;36525;49.398;7.614;2023-04-30T04:44:12;25.95;;;23.15;;
50569;SDS011;36525;49.398;7.614;2023-04-30T04:46:39;31.05;;;23.52;;
50569;SDS011;36525;49.398;7.614;2023-04-30T04:49:09;25.75;;;22.95;;
50569;SDS011;36525;49.398;7.614;2023-04-30T04:51:40;26.10;;;22.35;;
50569;SDS011;36525;49.398;7.614;2023-04-30T04:54:08;26.23;;;22.70;;
50569;SDS011;36525;49.398;7.614;2023-04-30T04:56:35;27.45;;;22.45;;
50569;SDS011;36525;49.398;7.614;2023-04-30T04:59:02;27.33;;;22.95;;
50569;SDS011;36525;49.398;7.614;2023-04-30T05:01:29;26.50;;;23.70;;
50569;SDS011;36525;49.398;7.614;2023-04-30T05:03:56;26.67;;;22.13;;
50569;SDS011;36525;49.398;7.614;2023-04-30T05:06:24;23.65;;;21.15;;
50569;SDS011;36525;49.398;7.614;2023-04-30T05:08:52;26.17;;;23.30;;
50569;SDS011;36525;49.398;7.614;2023-04-30T05:11:20;26.80;;;23.55;;
50569;SDS011;36525;49.398;7.614;2023-04-30T05:13:48;26.23;;;22.25;;
50569;SDS011;36525;49.398;7.614;2023-04-30T05:16:15;26.70;;;21.35;;
50569;SDS011;36525;49.398;7.614;2023-04-30T05:18:42;26.67;;;22.05;;
50569;SDS011;36525;49.398;7.614;2023-04-30T05:21:10;25.25;;;22.38;;
50569;SDS011;36525;49.398;7.614;2023-04-30T05:23:37;24.60;;;20.65;;
50569;SDS011;36525;49.398;7.614;2023-04-30T05:26:05;23.58;;;21.08;;
50569;SDS011;36525;49.398;7.614;2023-04-30T05:28:32;25.33;;;21.58;;
50569;SDS011;36525;49.398;7.614;2023-04-30T05:31:00;26.13;;;22.20;;
50569;SDS011;36525;49.398;7.614;2023-04-30T05:33:27;26.63;;;21.10;;
50569;SDS011;36525;49.398;7.614;2023-04-30T05:35:54;29.58;;;21.20;;
50569;SDS011;36525;49.398;7.614;2023-04-30T05:38:21;24.85;;;22.00;;
50569;SDS011;36525;49.398;7.614;2023-04-30T05:40:49;25.58;;;21.27;;
50569;SDS011;36525;49.398;7.614;2023-04-30T05:43:16;24.92;;;21.92;;
50569;SDS011;36525;49.398;7.614;2023-04-30T05:45:44;24.73;;;20.98;;
50569;SDS011;36525;49.398;7.614;2023-04-30T05:48:11;21.58;;;19.25;;
50569;SDS011;36525;49.398;7.614;2023-04-30T05:50:38;24.52;;;21.25;;
50569;SDS011;36525;49.398;7.614;2023-04-30T05:53:05;25.35;;;20.67;;
50569;SDS011;36525;49.398;7.614;2023-04-30T05:55:33;23.42;;;19.08;;
50569;SDS011;36525;49.398;7.614;2023-04-30T05:58:01;24.95;;;20.40;;
50569;SDS011;36525;49.398;7.614;2023-04-30T06:00:28;27.15;;;19.90;;
50569;SDS011;36525;49.398;7.614;2023-04-30T06:02:55;21.63;;;19.08;;
50569;SDS011;36525;49.398;7.614;2023-04-30T06:05:22;23.35;;;18.80;;
50569;SDS011;36525;49.398;7.614;2023-04-30T06:07:49;24.27;;;19.63;;
50569;SDS011;36525;49.398;7.614;2023-04-30T06:10:16;21.20;;;17.80;;
50569;SDS011;36525;49.398;7.614;2023-04-30T06:12:44;22.95;;;19.77;;
50569;SDS011;36525;49.398;7.614;2023-04-30T06:15:11;21.65;;;17.67;;
50569;SDS011;36525;49.398;7.614;2023-04-30T06:17:38;21.73;;;16.95;;
50569;SDS011;36525;49.398;7.614;2023-04-30T06:20:05;20.70;;;17.00;;
50569;SDS011;36525;49.398;7.614;2023-04-30T06:22:33;19.15;;;16.27;;
50569;SDS011;36525;49.398;7.614;2023-04-30T06:25:01;17.55;;;15.07;;
50569;SDS011;36525;49.398;7.614;2023-04-30T06:27:28;18.77;;;15.43;;
50569;SDS011;36525;49.398;7.614;2023-04-30T06:29:58;17.77;;;15.48;;
50569;SDS011;36525;49.398;7.614;2023-04-30T06:32:26;22.52;;;16.25;;
50569;SDS011;36525;49.398;7.614;2023-04-30T06:34:54;18.48;;;16.48;;
50569;SDS011;36525;49.398;7.614;2023-04-30T06:37:21;17.83;;;14.55;;
50569;SDS011;36525;49.398;7.614;2023-04-30T06:39:49;18.42;;;16.20;;
50569;SDS011;36525;49.398;7.614;2023-04-30T06:42:16;17.65;;;14.88;;
50569;SDS011;36525;49.398;7.614;2023-04-30T06:44:45;16.83;;;15.00;;
50569;SDS011;36525;49.398;7.614;2023-04-30T06:47:12;19.27;;;14.88;;
50569;SDS011;36525;49.398;7.614;2023-04-30T06:49:40;16.58;;;14.80;;
50569;SDS011;36525;49.398;7.614;2023-04-30T06:52:07;15.18;;;13.57;;
50569;SDS011;36525;49.398;7.614;2023-04-30T06:54:34;15.68;;;12.85;;
50569;SDS011;36525;49.398;7.614;2023-04-30T06:57:01;16.88;;;14.18;;
50569;SDS011;36525;49.398;7.614;2023-04-30T06:59:28;17.27;;;13.70;;
50569;SDS011;36525;49.398;7.614;2023-04-30T07:01:55;17.27;;;13.40;;
50569;SDS011;36525;49.398;7.614;2023-04-30T07:04:22;15.07;;;13.05;;
50569;SDS011;36525;49.398;7.614;2023-04-30T07:06:49;15.05;;;13.45;;
50569;SDS011;36525;49.398;7.614;2023-04-30T07:09:17;16.13;;;13.38;;
50569;SDS011;36525;49.398;7.614;2023-04-30T07:11:44;16.52;;;12.30;;
50569;SDS011;36525;49.398;7.614;2023-04-30T07:14:11;15.48;;;12.30;;
50569;SDS011;36525;49.398;7.614;2023-04-30T07:16:38;15.77;;;12.65;;
50569;SDS011;36525;49.398;7.614;2023-04-30T07:19:06;14.70;;;11.82;;
50569;SDS011;36525;49.398;7.614;2023-04-30T07:21:33;14.23;;;11.40;;
50569;SDS011;36525;49.398;7.614;2023-04-30T07:24:00;15.88;;;12.55;;
50569;SDS011;36525;49.398;7.614;2023-04-30T07:26:27;15.35;;;12.13;;
50569;SDS011;36525;49.398;7.614;2023-04-30T07:28:54;13.85;;;11.38;;
50569;SDS011;36525;49.398;7.614;2023-04-30T07:31:22;11.70;;;10.32;;
50569;SDS011;36525;49.398;7.614;2023-04-30T07:33:51;13.82;;;10.48;;
50569;SDS011;36525;49.398;7.614;2023-04-30T07:36:20;12.90;;;10.43;;
50569;SDS011;36525;49.398;7.614;2023-04-30T07:38:48;14.82;;;10.98;;
50569;SDS011;36525;49.398;7.614;2023-04-30T07:41:15;17.67;;;10.93;;
50569;SDS011;36525;49.398;7.614;2023-04-30T07:43:42;15.38;;;11.05;;
50569;SDS011;36525;49.398;7.614;2023-04-30T07:46:09;15.95;;;11.05;;
50569;SDS011;36525;49.398;7.614;2023-04-30T07:48:38;12.15;;;9.27;;
50569;SDS011;36525;49.398;7.614;2023-04-30T07:51:05;12.73;;;9.73;;
50569;SDS011;36525;49.398;7.614;2023-04-30T07:53:32;17.35;;;9.93;;
50569;SDS011;36525;49.398;7.614;2023-04-30T07:56:00;12.93;;;9.85;;
50569;SDS011;36525;49.398;7.614;2023-04-30T07:58:27;12.65;;;9.18;;
50569;SDS011;36525;49.398;7.614;2023-04-30T08:00:54;15.07;;;10.23;;
50569;SDS011;36525;49.398;7.614;2023-04-30T08:03:30;17.00;;;10.10;;
50569;SDS011;36525;49.398;7.614;2023-04-30T08:05:58;14.02;;;9.57;;
50569;SDS011;36525;49.398;7.614;2023-04-30T08:08:26;12.48;;;8.18;;
50569;SDS011;36525;49.398;7.614;2023-04-30T08:10:53;11.32;;;8.88;;
50569;SDS011;36525;49.398;7.614;2023-04-30T08:13:20;16.90;;;9.55;;
50569;SDS011;36525;49.398;7.614;2023-04-30T08:15:47;10.80;;;8.15;;
50569;SDS011;36525;49.398;7.614;2023-04-30T08:18:14;10.88;;;7.82;;
50569;SDS011;36525;49.398;7.614;2023-04-30T08:20:41;13.55;;;7.00;;
50569;SDS011;36525;49.398;7.614;2023-04-30T08:23:08;13.00;;;7.78;;
50569;SDS011;36525;49.398;7.614;2023-04-30T08:25:36;10.23;;;7.60;;
50569;SDS011;36525;49.398;7.614;2023-04-30T08:28:03;9.93;;;7.43;;
50569;SDS011;36525;49.398;7.614;2023-04-30T08:30:33;9.43;;;7.82;;
50569;SDS011;36525;49.398;7.614;2023-04-30T08:33:00;11.55;;;7.30;;
50569;SDS011;36525;49.398;7.614;2023-04-30T08:35:27;10.32;;;6.70;;
50569;SDS011;36525;49.398;7.614;2023-04-30T08:37:55;9.00;;;7.55;;
50569;SDS011;36525;49.398;7.614;2023-04-30T08:40:22;10.27;;;7.75;;
50569;SDS011;36525;49.398;7.614;2023-04-30T08:43:09;11.18;;;7.75;;
50569;SDS011;36525;49.398;7.614;2023-04-30T08:45:37;10.75;;;6.80;;
50569;SDS011;36525;49.398;7.614;2023-04-30T08:48:04;13.65;;;6.78;;
50569;SDS011;36525;49.398;7.614;2023-04-30T08:50:41;10.52;;;6.72;;
50569;SDS011;36525;49.398;7.614;2023-04-30T08:53:09;6.47;;;5.28;;
50569;SDS011;36525;49.398;7.614;2023-04-30T08:55:38;6.25;;;4.82;;
50569;SDS011;36525;49.398;7.614;2023-04-30T08:58:07;8.95;;;5.97;;
50569;SDS011;36525;49.398;7.614;2023-04-30T09:00:36;10.13;;;6.05;;
50569;SDS011;36525;49.398;7.614;2023-04-30T09:03:06;9.93;;;6.47;;
50569;SDS011;36525;49.398;7.614;2023-04-30T09:05:35;10.18;;;6.43;;
50569;SDS011;36525;49.398;7.614;2023-04-30T09:08:03;8.70;;;5.43;;
50569;SDS011;36525;49.398;7.614;2023-04-30T09:10:34;9.48;;;6.43;;
50569;SDS011;36525;49.398;7.614;2023-04-30T09:13:05;7.38;;;4.25;;
50569;SDS011;36525;49.398;7.614;2023-04-30T09:15:35;7.68;;;4.25;;
50569;SDS011;36525;49.398;7.614;2023-04-30T09:18:13;6.63;;;3.47;;
50569;SDS011;36525;49.398;7.614;2023-04-30T09:20:54;6.45;;;4.13;;
50569;SDS011;36525;49.398;7.614;2023-04-30T09:23:31;6.25;;;3.63;;
50569;SDS011;36525;49.398;7.614;2023-04-30T09:25:58;4.75;;;2.70;;
50569;SDS011;36525;49.398;7.614;2023-04-30T09:28:27;4.43;;;2.60;;
50569;SDS011;36525;49.398;7.614;2023-04-30T09:30:55;6.50;;;3.03;;
50569;SDS011;36525;49.398;7.614;2023-04-30T09:33:23;4.85;;;2.35;;
50569;SDS011;36525;49.398;7.614;2023-04-30T09:35:51;3.75;;;1.85;;
50569;SDS011;36525;49.398;7.614;2023-04-30T09:38:28;4.47;;;1.88;;
50569;SDS011;36525;49.398;7.614;2023-04-30T09:40:58;3.88;;;1.60;;
50569;SDS011;36525;49.398;7.614;2023-04-30T09:43:27;6.47;;;1.88;;
50569;SDS011;36525;49.398;7.614;2023-04-30T09:45:56;4.07;;;2.05;;
50569;SDS011;36525;49.398;7.614;2023-04-30T09:48:26;5.30;;;2.45;;
50569;SDS011;36525;49.398;7.614;2023-04-30T09:50:54;5.90;;;3.05;;
50569;SDS011;36525;49.398;7.614;2023-04-30T09:53:23;4.55;;;2.85;;
50569;SDS011;36525;49.398;7.614;2023-04-30T09:55:50;9.68;;;3.90;;
50569;SDS011;36525;49.398;7.614;2023-04-30T09:58:18;7.05;;;3.78;;
50569;SDS011;36525;49.398;7.614;2023-04-30T10:00:45;5.25;;;3.40;;
50569;SDS011;36525;49.398;7.614;2023-04-30T10:03:14;6.82;;;3.10;;
50569;SDS011;36525;49.398;7.614;2023-04-30T10:05:44;6.90;;;2.65;;
50569;SDS011;36525;49.398;7.614;2023-04-30T10:08:25;9.85;;;2.78;;
50569;SDS011;36525;49.398;7.614;2023-04-30T10:11:05;6.03;;;3.57;;
50569;SDS011;36525;49.398;7.614;2023-04-30T10:13:37;6.32;;;4.03;;
50569;SDS011;36525;49.398;7.614;2023-04-30T10:19:02;6.43;;;4.18;;
50569;SDS011;36525;49.398;7.614;2023-04-30T10:21:33;5.97;;;3.17;;
50569;SDS011;36525;49.398;7.614;2023-04-30T10:24:02;5.65;;;2.75;;
50569;SDS011;36525;49.398;7.614;2023-04-30T10:26:31;4.80;;;3.00;;
50569;SDS011;36525;49.398;7.614;2023-04-30T10:28:59;3.75;;;2.38;;
50569;SDS011;36525;49.398;7.614;2023-04-30T10:31:26;3.85;;;2.60;;
50569;SDS011;36525;49.398;7.614;2023-04-30T10:37:06;4.22;;;2.60;;
50569;SDS011;36525;49.398;7.614;2023-04-30T10:39:49;4.45;;;2.75;;
50569;SDS011;36525;49.398;7.614;2023-04-30T10:42:17;5.88;;;3.28;;
50569;SDS011;36525;49.398;7.614;2023-04-30T10:44:45;5.80;;;2.97;;
50569;SDS011;36525;49.398;7.614;2023-04-30T10:47:14;5.10;;;2.70;;
50569;SDS011;36525;49.398;7.614;2023-04-30T10:49:45;4.80;;;2.67;;
50569;SDS011;36525;49.398;7.614;2023-04-30T10:52:25;7.03;;;2.70;;
50569;SDS011;36525;49.398;7.614;2023-04-30T10:54:55;5.07;;;2.38;;
50569;SDS011;36525;49.398;7.614;2023-04-30T10:57:22;4.63;;;2.47;;
50569;SDS011;36525;49.398;7.614;2023-04-30T11:00:17;3.88;;;2.67;;
50569;SDS011;36525;49.398;7.614;2023-04-30T11:02:45;5.53;;;2.58;;
50569;SDS011;36525;49.398;7.614;2023-04-30T11:05:14;3.28;;;1.80;;
50569;SDS011;36525;49.398;7.614;2023-04-30T11:07:47;2.97;;;1.65;;
50569;SDS011;36525;49.398;7.614;2023-04-30T11:10:15;3.35;;;1.58;;
50569;SDS011;36525;49.398;7.614;2023-04-30T11:12:47;4.50;;;2.20;;
50569;SDS011;36525;49.398;7.614;2023-04-30T11:15:16;4.15;;;1.90;;
50569;SDS011;36525;49.398;7.614;2023-04-30T11:17:49;4.60;;;2.05;;
50569;SDS011;36525;49.398;7.614;2023-04-30T11:20:20;3.95;;;1.70;;
50569;SDS011;36525;49.398;7.614;2023-04-30T11:25:52;4.20;;;2.00;;
50569;SDS011;36525;49.398;7.614;2023-04-30T11:28:24;5.53;;;2.22;;
50569;SDS011;36525;49.398;7.614;2023-04-30T11:30:57;2.90;;;1.85;;
50569;SDS011;36525;49.398;7.614;2023-04-30T11:33:27;4.78;;;1.80;;
50569;SDS011;36525;49.398;7.614;2023-04-30T11:35:58;10.57;;;2.97;;
50569;SDS011;36525;49.398;7.614;2023-04-30T11:38:30;3.75;;;1.80;;
50569;SDS011;36525;49.398;7.614;2023-04-30T11:41:02;3.42;;;1.92;;
50569;SDS011;36525;49.398;7.614;2023-04-30T11:43:30;5.15;;;1.67;;
50569;SDS011;36525;49.398;7.614;2023-04-30T11:48:39;6.40;;;2.60;;
50569;SDS011;36525;49.398;7.614;2023-04-30T11:51:15;4.15;;;2.30;;
50569;SDS011;36525;49.398;7.614;2023-04-30T11:53:50;3.65;;;1.73;;
50569;SDS011;36525;49.398;7.614;2023-04-30T11:56:18;5.13;;;2.15;;
50569;SDS011;36525;49.398;7.614;2023-04-30T11:58:48;4.30;;;1.80;;
50569;SDS011;36525;49.398;7.614;2023-04-30T12:01:20;5.68;;;2.20;;
50569;SDS011;36525;49.398;7.614;2023-04-30T12:03:54;3.80;;;1.80;;
50569;SDS011;36525;49.398;7.614;2023-04-30T12:06:23;6.35;;;1.80;;
50569;SDS011;36525;49.398;7.614;2023-04-30T12:08:54;3.70;;;1.80;;
50569;SDS011;36525;49.398;7.614;2023-04-30T12:11:26;3.38;;;1.50;;
50569;SDS011;36525;49.398;7.614;2023-04-30T12:14:05;3.13;;;1.40;;
50569;SDS011;36525;49.398;7.614;2023-04-30T12:16:45;4.80;;;2.00;;
50569;SDS011;36525;49.398;7.614;2023-04-30T12:19:18;5.72;;;1.73;;
50569;SDS011;36525;49.398;7.614;2023-04-30T12:21:52;5.22;;;1.63;;
50569;SDS011;36525;49.398;7.614;2023-04-30T12:24:20;1.90;;;1.40;;
50569;SDS011;36525;49.398;7.614;2023-04-30T12:26:51;3.25;;;1.40;;
50569;SDS011;36525;49.398;7.614;2023-04-30T12:29:20;4.97;;;1.45;;
50569;SDS011;36525;49.398;7.614;2023-04-30T12:31:50;4.35;;;1.30;;
50569;SDS011;36525;49.398;7.614;2023-04-30T12:34:18;4.35;;;1.63;;
50569;SDS011;36525;49.398;7.614;2023-04-30T12:36:45;3.88;;;1.30;;
50569;SDS011;36525;49.398;7.614;2023-04-30T12:39:19;5.40;;;1.58;;
50569;SDS011;36525;49.398;7.614;2023-04-30T12:41:47;3.40;;;1.20;;
50569;SDS011;36525;49.398;7.614;2023-04-30T12:44:22;3.05;;;1.38;;
50569;SDS011;36525;49.398;7.614;2023-04-30T12:46:51;3.90;;;1.17;;
50569;SDS011;36525;49.398;7.614;2023-04-30T12:49:23;3.70;;;1.45;;
50569;SDS011;36525;49.398;7.614;2023-04-30T12:51:51;3.50;;;1.42;;
50569;SDS011;36525;49.398;7.614;2023-04-30T12:54:34;3.28;;;1.35;;
50569;SDS011;36525;49.398;7.614;2023-04-30T12:57:03;3.80;;;1.60;;
50569;SDS011;36525;49.398;7.614;2023-04-30T12:59:36;3.15;;;1.70;;
50569;SDS011;36525;49.398;7.614;2023-04-30T13:02:16;3.30;;;1.38;;
50569;SDS011;36525;49.398;7.614;2023-04-30T13:04:44;2.78;;;1.20;;
50569;SDS011;36525;49.398;7.614;2023-04-30T13:07:11;2.75;;;1.20;;
50569;SDS011;36525;49.398;7.614;2023-04-30T13:09:38;2.95;;;1.08;;
50569;SDS011;36525;49.398;7.614;2023-04-30T13:12:06;2.38;;;1.15;;
50569;SDS011;36525;49.398;7.614;2023-04-30T13:14:37;3.20;;;1.15;;
50569;SDS011;36525;49.398;7.614;2023-04-30T13:17:07;3.72;;;1.30;;
50569;SDS011;36525;49.398;7.614;2023-04-30T13:19:37;3.03;;;1.50;;
50569;SDS011;36525;49.398;7.614;2023-04-30T13:22:05;3.85;;;1.00;;
50569;SDS011;36525;49.398;7.614;2023-04-30T13:24:32;2.65;;;1.13;;
50569;SDS011;36525;49.398;7.614;2023-04-30T13:27:00;2.38;;;1.20;;
50569;SDS011;36525;49.398;7.614;2023-04-30T13:29:28;3.55;;;1.25;;
50569;SDS011;36525;49.398;7.614;2023-04-30T13:31:55;3.50;;;1.15;;
50569;SDS011;36525;49.398;7.614;2023-04-30T13:34:23;4.15;;;1.10;;
50569;SDS011;36525;49.398;7.614;2023-04-30T13:36:50;2.42;;;1.08;;
50569;SDS011;36525;49.398;7.614;2023-04-30T13:39:18;3.20;;;1.20;;
50569;SDS011;36525;49.398;7.614;2023-04-30T13:41:47;3.75;;;0.90;;
50569;SDS011;36525;49.398;7.614;2023-04-30T13:44:17;2.13;;;1.08;;
50569;SDS011;36525;49.398;7.614;2023-04-30T13:46:47;3.72;;;1.00;;
50569;SDS011;36525;49.398;7.614;2023-04-30T13:49:29;3.15;;;1.13;;
50569;SDS011;36525;49.398;7.614;2023-04-30T13:51:57;2.28;;;1.10;;
50569;SDS011;36525;49.398;7.614;2023-04-30T13:54:24;2.58;;;1.00;;
50569;SDS011;36525;49.398;7.614;2023-04-30T13:56:52;2.90;;;1.33;;
50569;SDS011;36525;49.398;7.614;2023-04-30T13:59:21;2.65;;;1.10;;
50569;SDS011;36525;49.398;7.614;2023-04-30T14:01:48;2.35;;;1.10;;
50569;SDS011;36525;49.398;7.614;2023-04-30T14:04:16;3.17;;;0.90;;
50569;SDS011;36525;49.398;7.614;2023-04-30T14:06:43;2.05;;;1.20;;
50569;SDS011;36525;49.398;7.614;2023-04-30T14:09:11;4.05;;;1.00;;
50569;SDS011;36525;49.398;7.614;2023-04-30T14:11:40;3.53;;;1.10;;
50569;SDS011;36525;49.398;7.614;2023-04-30T14:14:08;2.83;;;0.80;;
50569;SDS011;36525;49.398;7.614;2023-04-30T14:16:35;1.42;;;0.70;;
50569;SDS011;36525;49.398;7.614;2023-04-30T14:19:02;1.85;;;0.80;;
50569;SDS011;36525;49.398;7.614;2023-04-30T14:21:30;3.50;;;0.88;;
50569;SDS011;36525;49.398;7.614;2023-04-30T14:23:59;2.58;;;0.90;;
50569;SDS011;36525;49.398;7.614;2023-04-30T14:26:29;2.65;;;0.80;;
50569;SDS011;36525;49.398;7.614;2023-04-30T14:28:57;3.08;;;1.00;;
50569;SDS011;36525;49.398;7.614;2023-04-30T14:31:24;2.40;;;0.90;;
50569;SDS011;36525;49.398;7.614;2023-04-30T14:33:52;2.25;;;0.90;;
50569;SDS011;36525;49.398;7.614;2023-04-30T14:36:19;1.63;;;0.68;;
50569;SDS011;36525;49.398;7.614;2023-04-30T14:38:46;3.15;;;1.25;;
50569;SDS011;36525;49.398;7.614;2023-04-30T14:41:13;3.28;;;1.20;;
50569;SDS011;36525;49.398;7.614;2023-04-30T14:43:42;2.03;;;0.90;;
50569;SDS011;36525;49.398;7.614;2023-04-30T14:46:09;2.35;;;0.73;;
50569;SDS011;36525;49.398;7.614;2023-04-30T14:48:38;3.75;;;0.73;;
50569;SDS011;36525;49.398;7.614;2023-04-30T14:51:07;1.85;;;0.70;;
50569;SDS011;36525;49.398;7.614;2023-04-30T14:53:35;4.70;;;0.68;;
50569;SDS011;36525;49.398;7.614;2023-04-30T14:56:02;3.00;;;0.80;;
50569;SDS011;36525;49.398;7.614;2023-04-30T14:58:29;2.05;;;0.73;;
50569;SDS011;36525;49.398;7.614;2023-04-30T15:00:56;1.75;;;0.90;;
50569;SDS011;36525;49.398;7.614;2023-04-30T15:03:24;1.63;;;0.70;;
50569;SDS011;36525;49.398;7.614;2023-04-30T15:05:51;1.65;;;0.90;;
50569;SDS011;36525;49.398;7.614;2023-04-30T15:08:18;2.85;;;0.90;;
50569;SDS011;36525;49.398;7.614;2023-04-30T15:10:48;4.32;;;0.98;;
50569;SDS011;36525;49.398;7.614;2023-04-30T15:13:15;4.32;;;0.88;;
50569;SDS011;36525;49.398;7.614;2023-04-30T15:15:43;1.33;;;0.68;;